Time;durP1;ratioP1;P1;durP2;ratioP2;P2;SDS_P1;SDS_P2;PMS_P1;PMS_P2;Temp;Humidity;BMP_temperature;BMP_pressure;BME280_temperature;BME280_humidity;BME280_pressure;Samples;Min_cycle;Max_cycle;Signal;HPM_P1;HPM_P2
2022/01/06 00:06:50;;;;;;;2.10;0.83;;;;;;;;;;20742860;28;20219;-83
2022/01/06 00:17:16;;;;;;;0.60;0.23;;;;;;;;;;20758161;28;20750;-81
2022/01/06 00:27:18;;;;;;;1.13;0.60;;;;;;;;;;20728940;28;20381;-82
2022/01/06 00:37:19;;;;;;;1.37;0.97;;;;;;;;;;20773855;28;20250;-81
2022/01/06 00:47:21;;;;;;;1.20;0.73;;;;;;;;;;20757918;28;20211;-81
2022/01/06 00:57:23;;;;;;;1.77;0.50;;;;;;;;;;20724636;28;20227;-81
2022/01/06 01:07:25;;;;;;;4.07;0.63;;;;;;;;;;20722537;28;20203;-81
2022/01/06 01:17:27;;;;;;;2.67;0.63;;;;;;;;;;20753892;28;20223;-81
2022/01/06 01:27:34;;;;;;;0.10;0.10;;;;;;;;;;20736622;28;20289;-81
2022/01/06 01:37:37;;;;;;;1.03;0.43;;;3.90;99.90;;;;;;20752968;28;20454;-81
2022/01/06 01:47:43;;;;;;;1.13;0.50;;;;;;;;;;20737224;28;20215;-81
2022/01/06 01:57:46;;;;;;;0.80;0.80;;;4.00;99.90;;;;;;20735903;28;20243;-82
2022/01/06 02:07:48;;;;;;;0.37;0.30;;;;;;;;;;20778132;28;20228;-81
2022/01/06 02:17:50;;;;;;;1.23;0.50;;;;;;;;;;20751065;28;20266;-81
2022/01/06 02:27:53;;;;;;;4.83;0.90;;;;;;;;;;20766182;28;20274;-81
2022/01/06 02:37:55;;;;;;;0.47;0.30;;;;;;;;;;20751040;28;20231;-82
2022/01/06 02:47:57;;;;;;;2.73;0.70;;;;;;;;;;20749590;28;20215;-81
2022/01/06 02:57:59;;;;;;;2.60;0.53;;;;;;;;;;20715328;28;20227;-81
2022/01/06 03:08:01;;;;;;;3.20;0.33;;;;;;;;;;20747111;28;20269;-81
2022/01/06 03:18:02;;;;;;;0.30;0.30;;;;;;;;;;20763031;28;20227;-81
2022/01/06 03:28:04;;;;;;;0.27;0.27;;;;;;;;;;20730198;28;20357;-82
2022/01/06 03:38:06;;;;;;;1.03;0.40;;;;;;;;;;20762657;28;20232;-83
2022/01/06 03:48:08;;;;;;;0.37;0.37;;;;;;;;;;20718877;28;20261;-81
2022/01/06 03:58:11;;;;;;;0.20;0.20;;;;;;;;;;20743949;28;20297;-81
2022/01/06 04:08:13;;;;;;;0.30;0.23;;;;;;;;;;20743817;28;20203;-81
2022/01/06 04:18:15;;;;;;;0.43;0.27;;;;;;;;;;20761287;28;20704;-81
2022/01/06 04:28:17;;;;;;;0.60;0.43;;;;;;;;;;20744070;28;20762;-81
2022/01/06 04:38:21;;;;;;;0.50;0.37;;;3.80;99.90;;;;;;20742764;28;20219;-82
2022/01/06 04:48:23;;;;;;;0.53;0.33;;;;;;;;;;20765506;28;20211;-81
2022/01/06 04:58:25;;;;;;;1.33;0.50;;;;;;;;;;20772208;28;20293;-81
2022/01/06 05:08:27;;;;;;;0.47;0.30;;;;;;;;;;20755529;28;20207;-81
2022/01/06 05:18:29;;;;;;;4.70;0.93;;;;;;;;;;20722427;28;20226;-81
2022/01/06 05:28:30;;;;;;;1.80;0.60;;;;;;;;;;20755064;28;20273;-81
2022/01/06 05:38:32;;;;;;;0.37;0.37;;;;;;;;;;20752663;28;20285;-81
2022/01/06 05:48:34;;;;;;;0.20;0.10;;;;;;;;;;20727598;28;20242;-81
2022/01/06 05:58:37;;;;;;;0.27;0.27;;;;;;;;;;20786751;28;20280;-81
2022/01/06 06:08:39;;;;;;;1.43;0.70;;;;;;;;;;20766524;28;20219;-79
2022/01/06 06:18:40;;;;;;;0.40;0.40;;;;;;;;;;20718239;28;20589;-80
2022/01/06 06:28:43;;;;;;;2.10;0.80;;;;;;;;;;20732794;28;20568;-80
2022/01/06 06:38:45;;;;;;;0.93;0.53;;;;;;;;;;20747611;28;20297;-80
2022/01/06 06:48:47;;;;;;;0.50;0.40;;;;;;;;;;20747542;28;20246;-80
2022/01/06 06:58:49;;;;;;;0.40;0.30;;;;;;;;;;20730835;28;20235;-80
2022/01/06 07:08:51;;;;;;;0.30;0.30;;;;;;;;;;20715048;28;20767;-79
2022/01/06 07:18:53;;;;;;;0.50;0.50;;;;;;;;;;20730594;28;20227;-82
2022/01/06 07:28:54;;;;;;;2.20;0.50;;;;;;;;;;20747588;28;20218;-80
2022/01/06 07:38:56;;;;;;;0.97;0.23;;;;;;;;;;20751187;28;20227;-80
2022/01/06 07:48:58;;;;;;;0.20;0.20;;;;;;;;;;20746682;28;20211;-80
2022/01/06 07:59:00;;;;;;;1.23;0.60;;;;;;;;;;20776919;28;20227;-80
2022/01/06 08:09:02;;;;;;;2.60;0.60;;;3.30;99.90;;;;;;20759918;28;20578;-80
2022/01/06 08:19:04;;;;;;;0.67;0.30;;;;;;;;;;20725816;28;20254;-81
2022/01/06 08:29:05;;;;;;;4.63;0.60;;;;;;;;;;20743067;28;20266;-80
2022/01/06 08:39:07;;;;;;;0.30;0.30;;;;;;;;;;20767238;28;20272;-80
2022/01/06 08:49:11;;;;;;;0.47;0.30;;;;;;;;;;20773196;28;20266;-80
2022/01/06 08:59:13;;;;;;;1.97;0.50;;;;;;;;;;20724090;28;20262;-80
2022/01/06 09:09:15;;;;;;;0.57;0.50;;;;;;;;;;20757487;28;20218;-80
2022/01/06 09:19:17;;;;;;;1.70;0.93;;;;;;;;;;20770440;28;20258;-79
2022/01/06 09:29:19;;;;;;;0.53;0.30;;;;;;;;;;20739423;28;20269;-81
2022/01/06 09:39:21;;;;;;;0.50;0.50;;;;;;;;;;20736563;28;20231;-81
2022/01/06 09:49:23;;;;;;;0.53;0.40;;;;;;;;;;20735840;28;20273;-81
2022/01/06 09:59:25;;;;;;;2.10;0.63;;;;;;;;;;20754187;28;20230;-81
2022/01/06 10:09:27;;;;;;;0.87;0.47;;;;;;;;;;20718702;28;20278;-81
2022/01/06 10:19:29;;;;;;;0.30;0.23;;;;;;;;;;20733194;28;20261;-80
2022/01/06 10:29:34;;;;;;;2.43;0.50;;;5.20;99.90;;;;;;20728560;28;20246;-81
2022/01/06 10:39:42;;;;;;;2.43;0.40;;;;;;;;;;20732341;28;20265;-82
2022/01/06 10:49:45;;;;;;;1.50;0.60;;;;;;;;;;20732332;28;20219;-82
2022/01/06 10:59:46;;;;;;;0.83;0.27;;;;;;;;;;20731391;28;20231;-82
2022/01/06 11:09:49;;;;;;;1.60;0.40;;;5.00;99.90;;;;;;20798487;28;20298;-81
2022/01/06 11:19:51;;;;;;;2.20;0.53;;;4.70;99.90;;;;;;20750776;28;20270;-82
2022/01/06 11:29:53;;;;;;;0.93;0.57;;;;;;;;;;20747613;28;20274;-81
2022/01/06 11:40:02;;;;;;;2.80;0.37;;;;;;;;;;20761957;28;20215;-82
2022/01/06 11:50:07;;;;;;;1.63;0.60;;;;;;;;;;20745439;28;20289;-82
2022/01/06 12:00:14;;;;;;;0.90;0.60;;;;;;;;;;20730254;28;20770;-81
2022/01/06 12:10:17;;;;;;;2.47;1.03;;;;;;;;;;20753872;28;20219;-82
2022/01/06 12:20:28;;;;;;;2.00;0.40;;;5.30;99.90;;;;;;20758130;28;20281;-83
2022/01/06 12:30:35;;;;;;;1.33;0.50;;;6.10;99.90;;;;;;20757847;28;20266;-81
2022/01/06 12:40:39;;;;;;;0.50;0.20;;;6.00;99.90;;;;;;20740609;28;20254;-81
2022/01/06 12:50:45;;;;;;;1.20;0.50;;;;;;;;;;20755784;28;20219;-82
2022/01/06 13:01:03;;;;;;;0.87;0.40;;;5.70;99.90;;;;;;20740415;28;20243;-82
2022/01/06 13:11:06;;;;;;;2.50;0.47;;;5.50;99.90;;;;;;20786075;28;20215;-82
2022/01/06 13:21:08;;;;;;;1.77;0.83;;;;;;;;;;20738053;28;20293;-82
2022/01/06 13:31:17;;;;;;;2.03;0.57;;;;;;;;;;20739533;28;20282;-83
2022/01/06 13:41:25;;;;;;;1.80;0.40;;;;;;;;;;20725107;28;20568;-81
2022/01/06 13:51:28;;;;;;;1.17;0.33;;;;;;;;;;20757663;28;20215;-82
2022/01/06 14:01:30;;;;;;;1.33;0.53;;;;;;;;;;20740166;28;20796;-81
2022/01/06 14:11:32;;;;;;;1.80;0.60;;;;;;;;;;20735245;28;20583;-82
2022/01/06 14:21:35;;;;;;;0.90;0.50;;;;;;;;;;20752014;28;20265;-82
2022/01/06 14:31:37;;;;;;;5.40;1.03;;;;;;;;;;20692483;28;20204;-82
2022/01/06 14:41:39;;;;;;;2.00;0.90;;;;;;;;;;20652203;28;20626;-82
2022/01/06 14:51:43;;;;;;;0.40;0.37;;;;;;;;;;20667366;28;20216;-82
2022/01/06 15:01:44;;;;;;;1.27;0.60;;;;;;;;;;20635991;28;20223;-82
2022/01/06 15:11:47;;;;;;;2.17;0.27;;;;;;;;;;20666852;28;20614;-82
2022/01/06 15:21:49;;;;;;;1.93;1.13;;;;;;;;;;20665512;28;20721;-83
2022/01/06 15:31:51;;;;;;;1.20;0.40;;;;;;;;;;20686619;28;20227;-82
2022/01/06 15:41:53;;;;;;;0.37;0.37;;;;;;;;;;20774975;28;20244;-83
2022/01/06 15:51:55;;;;;;;1.27;0.63;;;;;;;;;;20763478;28;20265;-82
2022/01/06 16:11:58;;;;;;;0.93;0.30;;;;;;;;;;20762197;28;20211;-82
2022/01/06 16:22:04;;;;;;;1.03;0.10;;;;;;;;;;20745916;28;20246;-82
2022/01/06 16:32:20;;;;;;;0.70;0.23;;;4.40;99.90;;;;;;20723447;28;20215;-82
2022/01/06 16:42:21;;;;;;;5.37;0.87;;;;;;;;;;20775964;28;20617;-82
2022/01/06 16:52:23;;;;;;;2.17;1.07;;;;;;;;;;20758346;28;20219;-82
2022/01/06 17:02:25;;;;;;;0.73;0.53;;;;;;;;;;20756640;28;20266;-82
2022/01/06 17:12:27;;;;;;;2.23;1.27;;;;;;;;;;20772553;28;20289;-82
2022/01/06 17:22:29;;;;;;;2.50;0.70;;;;;;;;;;20770954;28;20231;-82
2022/01/06 17:32:32;;;;;;;1.67;1.00;;;;;;;;;;20771519;28;20211;-83
2022/01/06 17:42:34;;;;;;;1.73;1.00;;;;;;;;;;20776076;28;20231;-83
2022/01/06 17:52:36;;;;;;;1.37;0.83;;;;;;;;;;20738148;28;20219;-81
2022/01/06 18:02:39;;;;;;;1.53;0.87;;;;;;;;;;20722112;28;20625;-80
2022/01/06 18:12:40;;;;;;;3.33;1.07;;;;;;;;;;20652067;28;20290;-81
2022/01/06 18:22:43;;;;;;;1.07;0.60;;;;;;;;;;20675590;28;20309;-81
2022/01/06 18:32:45;;;;;;;1.47;0.40;;;;;;;;;;20759477;28;20247;-80
2022/01/06 18:42:46;;;;;;;1.50;0.87;;;;;;;;;;20771802;28;20227;-80
2022/01/06 18:52:49;;;;;;;1.00;0.53;;;;;;;;;;20768651;28;20582;-80
2022/01/06 19:02:52;;;;;;;1.17;0.50;;;;;;;;;;20764031;28;20293;-80
2022/01/06 19:12:58;;;;;;;2.20;1.10;;;;;;;;;;20773968;28;20211;-80
2022/01/06 19:23:00;;;;;;;0.97;0.50;;;;;;;;;;20792889;28;20257;-81
2022/01/06 19:33:03;;;;;;;2.73;1.00;;;;;;;;;;20793183;28;20692;-80
2022/01/06 19:43:06;;;;;;;1.27;0.90;;;;;;;;;;20043344;28;21178460;-80
2022/01/06 19:53:11;;;;;;;2.43;1.10;;;;;;;;;;20793225;28;20219;-81
2022/01/06 20:03:13;;;;;;;1.47;0.87;;;;;;;;;;20771128;28;20305;-81
2022/01/06 20:13:22;;;;;;;1.73;1.33;;;;;;;;;;20789382;28;20219;-81
2022/01/06 20:23:24;;;;;;;0.80;0.50;;;;;;;;;;20779591;28;20219;-82
2022/01/06 20:45:06;;;;;;;1.63;1.00;;;;;;;;;;21006096;27;20563;-66
2022/01/06 20:55:09;;;;;;;1.00;0.57;;;2.40;99.90;;;;;;20977746;28;20197;-66
2022/01/06 21:05:12;;;;;;;1.93;0.90;;;;;;;;;;20943259;28;20271;-67
2022/01/06 21:15:14;;;;;;;1.93;1.00;;;;;;;;;;20926990;28;20742;-67
2022/01/06 21:25:15;;;;;;;0.87;0.83;;;;;;;;;;20926203;28;20209;-66
2022/01/06 21:35:18;;;;;;;0.60;0.53;;;2.40;99.90;;;;;;20956919;28;20585;-66
2022/01/06 21:45:21;;;;;;;1.30;0.70;;;2.50;99.90;;;;;;20955119;28;20279;-66
2022/01/06 21:55:23;;;;;;;1.87;1.37;;;2.40;99.90;;;;;;20905747;22;20235;-73
2022/01/06 22:05:25;;;;;;;1.57;0.93;;;;;;;;;;20829842;28;20214;-73
2022/01/06 22:15:27;;;;;;;2.43;1.47;;;2.20;99.90;;;;;;20830126;28;20252;-73
2022/01/06 22:25:29;;;;;;;2.67;1.63;;;;;;;;;;20829394;28;20231;-73
2022/01/06 22:35:31;;;;;;;2.60;1.47;;;;;;;;;;20830014;28;20218;-73
2022/01/06 22:45:33;;;;;;;2.97;0.80;;;;;;;;;;20818151;28;20214;-73
2022/01/06 22:55:35;;;;;;;1.50;1.10;;;;;;;;;;20828109;28;20657;-73
2022/01/06 23:05:37;;;;;;;0.73;0.70;;;;;;;;;;20823769;28;20249;-73
2022/01/06 23:15:39;;;;;;;0.87;0.60;;;;;;;;;;20824764;28;20614;-73
2022/01/06 23:25:43;;;;;;;0.90;0.80;;;;;;;;;;20822438;28;20304;-73
2022/01/06 23:35:45;;;;;;;1.30;0.77;;;;;;;;;;20824246;28;20202;-73
2022/01/06 23:45:46;;;;;;;3.27;0.93;;;;;;;;;;20822913;28;20249;-73
2022/01/06 23:55:48;;;;;;;0.70;0.70;;;;;;;;;;20819575;28;20265;-73
